Time;durP1;ratioP1;P1;durP2;ratioP2;P2;SDS_P1;SDS_P2;PMS_P1;PMS_P2;Temp;Humidity;BMP_temperature;BMP_pressure;BME280_temperature;BME280_humidity;BME280_pressure;Samples;Min_cycle;Max_cycle;Signal;HPM_P1;HPM_P2
2021/09/17 00:00:18;;;;;;;;;20.25;16.75;;;;;;;;5041552;28;45424;-83
2021/09/17 00:02:43;;;;;;;;;22.25;18.25;;;;;;;;5024786;28;45544;-83
2021/09/17 00:05:09;;;;;;;;;20.50;19.75;;;;;;;;5048732;28;45347;-83
2021/09/17 00:07:34;;;;;;;;;27.75;21.00;;;;;;;;5029800;28;46036;-82
2021/09/17 00:09:59;;;;;;;;;18.25;17.25;;;;;;;;5048442;28;45438;-83
2021/09/17 00:12:25;;;;;;;;;18.25;18.00;;;;;;;;5046284;28;45228;-83
2021/09/17 00:14:50;;;;;;;;;17.50;17.25;;;;;;;;5044543;28;47489;-83
2021/09/17 00:17:16;;;;;;;;;19.75;17.75;;;;;;;;5028867;28;45225;-83
2021/09/17 00:19:41;;;;;;;;;19.75;17.25;;;;;;;;5030418;28;45206;-83
2021/09/17 00:22:06;;;;;;;;;17.75;15.00;;;;;;;;5030178;28;45503;-83
2021/09/17 00:24:32;;;;;;;;;19.00;17.50;;;;;;;;5047495;28;45340;-83
2021/09/17 00:26:58;;;;;;;;;20.75;19.75;;;;;;;;5048164;28;45177;-83
2021/09/17 00:29:23;;;;;;;;;24.50;19.25;;;;;;;;5028836;28;45230;-82
2021/09/17 00:31:48;;;;;;;;;24.25;18.25;;;;;;;;5043041;28;45496;-83
2021/09/17 00:34:14;;;;;;;;;22.50;21.25;;;;;;;;5025465;28;46506;-83
2021/09/17 00:36:39;;;;;;;;;26.00;19.00;;;;;;;;5026448;28;45835;-83
2021/09/17 00:39:04;;;;;;;;;20.50;16.25;;;;;;;;5045603;28;45393;-83
2021/09/17 00:41:30;;;;;;;;;24.75;20.50;;;;;;;;5027548;28;44939;-83
2021/09/17 00:43:55;;;;;;;;;24.25;21.25;;;;;;;;5046056;28;46430;-83
2021/09/17 00:46:21;;;;;;;;;23.50;21.25;;;;;;;;5046270;28;45383;-83
2021/09/17 00:48:46;;;;;;;;;20.75;19.50;;;;;;;;5045162;28;45248;-83
2021/09/17 00:51:11;;;;;;;;;26.25;23.25;;;;;;;;5027258;28;45360;-83
2021/09/17 00:53:37;;;;;;;;;24.50;21.75;;;;;;;;5044365;28;46150;-83
2021/09/17 00:56:03;;;;;;;;;22.00;19.00;;;;;;;;5047128;28;45372;-83
2021/09/17 00:58:28;;;;;;;;;22.25;20.00;;;;;;;;5030092;28;45357;-83
2021/09/17 01:00:54;;;;;;;;;22.75;21.50;;;;;;;;5044095;28;45274;-83
2021/09/17 01:03:19;;;;;;;;;22.25;19.50;;;;;;;;5038867;28;47091;-83
2021/09/17 01:05:44;;;;;;;;;20.00;20.00;;;;;;;;5040073;28;45307;-83
2021/09/17 01:08:10;;;;;;;;;18.50;17.00;;;;;;;;5048369;28;45311;-84
2021/09/17 01:10:35;;;;;;;;;24.00;17.67;;;;;;;;5029469;28;45412;-83
2021/09/17 01:13:01;;;;;;;;;20.25;19.50;;;;;;;;5031205;28;46015;-83
2021/09/17 01:15:27;;;;;;;;;24.25;17.75;;;;;;;;5031990;28;45171;-83
2021/09/17 01:17:52;;;;;;;;;18.75;18.75;;;;;;;;5027324;28;45186;-83
2021/09/17 01:20:19;;;;;;;;;17.25;17.25;;;;;;;;5027795;28;45189;-83
2021/09/17 01:22:45;;;;;;;;;18.00;17.50;;;;;;;;5029244;28;45551;-83
2021/09/17 01:25:11;;;;;;;;;13.75;13.00;;;;;;;;5027897;28;45272;-83
2021/09/17 01:27:37;;;;;;;;;16.25;13.25;;;;;;;;5027344;28;45496;-83
2021/09/17 01:30:03;;;;;;;;;13.75;13.25;;;;;;;;5027079;28;45593;-83
2021/09/17 01:32:29;;;;;;;;;18.75;16.50;;;;;;;;5026813;28;47623;-83
2021/09/17 01:34:54;;;;;;;;;19.33;16.33;;;;;;;;5026411;28;45622;-83
2021/09/17 01:37:19;;;;;;;;;20.00;19.00;;;;;;;;5026134;28;45300;-83
2021/09/17 01:39:44;;;;;;;;;21.00;19.00;;;;;;;;5026331;28;45598;-83
2021/09/17 01:42:10;;;;;;;;;21.75;17.00;;;;;;;;5043163;28;46507;-82
2021/09/17 01:44:36;;;;;;;;;21.00;18.25;;;;;;;;5026599;28;45533;-83
2021/09/17 01:47:01;;;;;;;;;23.75;18.00;;;;;;;;5028671;28;45220;-83
2021/09/17 01:49:26;;;;;;;;;19.50;17.50;;;;;;;;5027623;28;45282;-83
2021/09/17 01:51:53;;;;;;;;;19.00;17.75;;;;;;;;5029470;28;45153;-83
2021/09/17 01:54:18;;;;;;;;;13.50;13.50;;;;;;;;5030153;28;45554;-83
2021/09/17 01:56:44;;;;;;;;;20.50;17.75;;;;;;;;5029641;28;45253;-83
2021/09/17 01:59:09;;;;;;;;;20.75;17.75;;;;;;;;5029225;28;45421;-83
2021/09/17 02:01:34;;;;;;;;;22.00;19.00;;;;;;;;5029098;28;45397;-83
2021/09/17 02:04:01;;;;;;;;;21.25;19.25;;;;;;;;5029959;28;45394;-82
2021/09/17 02:06:26;;;;;;;;;21.50;18.25;;;;;;;;5041500;28;44761;-83
2021/09/17 02:08:52;;;;;;;;;27.25;20.50;;;;;;;;5031772;28;45279;-83
2021/09/17 02:11:18;;;;;;;;;21.25;17.25;;;;;;;;5025459;28;46931;-83
2021/09/17 02:13:43;;;;;;;;;18.00;16.25;;;;;;;;5025111;28;45322;-83
2021/09/17 02:16:09;;;;;;;;;19.75;19.00;;;;;;;;5024670;28;45488;-83
2021/09/17 02:18:34;;;;;;;;;24.50;22.75;;;;;;;;5037589;28;45220;-83
2021/09/17 02:20:59;;;;;;;;;25.25;19.75;;;;;;;;5040416;28;46319;-83
2021/09/17 02:23:24;;;;;;;;;19.50;17.25;;;;;;;;5046636;28;45202;-83
2021/09/17 02:25:50;;;;;;;;;23.33;22.33;;;;;;;;5043217;28;45279;-83
2021/09/17 02:28:15;;;;;;;;;30.50;19.75;;;;;;;;5036107;28;45539;-83
2021/09/17 02:30:41;;;;;;;;;24.00;19.25;;;;;;;;5048664;28;45327;-83
2021/09/17 02:33:06;;;;;;;;;28.33;22.00;;;;;;;;5051894;28;45315;-83
2021/09/17 02:35:31;;;;;;;;;19.25;18.25;;;;;;;;5052435;28;45133;-83
2021/09/17 02:37:56;;;;;;;;;18.75;18.75;;;;;;;;5049353;28;45151;-83
2021/09/17 02:40:22;;;;;;;;;21.50;20.25;;;;;;;;5048418;28;45313;-83
2021/09/17 02:42:47;;;;;;;;;27.25;18.50;;;;;;;;5048597;28;45257;-83
2021/09/17 02:45:13;;;;;;;;;22.50;22.50;;;;;;;;5030881;28;45241;-83
2021/09/17 02:47:39;;;;;;;;;23.00;20.00;;;;;;;;5045554;28;45950;-83
2021/09/17 02:50:05;;;;;;;;;25.75;21.75;;;;;;;;5046143;28;45496;-83
2021/09/17 02:52:30;;;;;;;;;28.00;19.75;;;;;;;;5045634;28;45354;-83
2021/09/17 02:54:55;;;;;;;;;25.00;21.00;;;;;;;;5028114;28;45420;-82
2021/09/17 02:57:21;;;;;;;;;26.00;20.75;;;;;;;;5045789;28;45316;-83
2021/09/17 02:59:46;;;;;;;;;24.00;21.25;;;;;;;;5046837;28;45418;-83
2021/09/17 03:02:12;;;;;;;;;24.75;21.00;;;;;;;;5045585;28;45375;-83
2021/09/17 03:04:37;;;;;;;;;25.75;21.50;;;;;;;;5045492;28;45526;-83
2021/09/17 03:07:02;;;;;;;;;21.00;20.25;;;;;;;;5045139;28;45344;-83
2021/09/17 03:09:28;;;;;;;;;21.75;20.00;;;;;;;;5042834;28;46050;-83
2021/09/17 03:11:53;;;;;;;;;22.00;21.75;;;;;;;;5026328;28;45416;-83
2021/09/17 03:14:19;;;;;;;;;17.00;16.00;;;;;;;;5044211;28;45414;-83
2021/09/17 03:16:53;;;;;;;;;21.75;17.75;;;;;;;;5028084;28;45279;-83
2021/09/17 03:19:19;;;;;;;;;18.25;17.00;;;;;;;;5050989;28;45323;-81
2021/09/17 03:21:44;;;;;;;;;21.50;17.75;;;;;;;;5051693;28;45494;-81
2021/09/17 03:24:10;;;;;;;;;22.00;20.00;;;;;;;;5038184;28;45301;-82
2021/09/17 03:26:35;;;;;;;;;23.75;19.50;;;;;;;;5047053;28;45458;-82
2021/09/17 03:29:01;;;;;;;;;17.50;16.50;;;;;;;;5041882;28;47114;-82
2021/09/17 03:31:27;;;;;;;;;23.75;20.50;;;;;;;;5041910;28;45211;-81
2021/09/17 03:33:52;;;;;;;;;17.25;17.25;;;;;;;;5027838;28;45220;-81
2021/09/17 03:36:17;;;;;;;;;18.00;16.75;;;;;;;;5045301;28;45160;-82
2021/09/17 03:38:42;;;;;;;;;22.50;19.00;;;;;;;;5044830;28;45390;-81
2021/09/17 03:41:08;;;;;;;;;22.50;19.50;;;;;;;;5042767;28;45963;-81
2021/09/17 03:43:33;;;;;;;;;21.00;19.25;;;;;;;;5044332;28;45196;-82
2021/09/17 03:45:59;;;;;;;;;21.25;20.00;;;;;;;;5025816;28;45347;-81
2021/09/17 03:48:24;;;;;;;;;22.50;20.50;;;;;;;;5024906;28;46933;-81
2021/09/17 03:50:49;;;;;;;;;24.00;23.00;;;;;;;;5041077;28;46103;-82
2021/09/17 03:53:15;;;;;;;;;22.50;19.50;;;;;;;;5044089;28;45478;-82
2021/09/17 03:55:40;;;;;;;;;22.33;20.67;;;;;;;;5044747;28;45549;-81
2021/09/17 03:58:05;;;;;;;;;24.25;20.50;;;;;;;;5044233;28;45393;-82
2021/09/17 04:00:31;;;;;;;;;20.75;19.00;;;;;;;;5044037;28;45411;-81
2021/09/17 04:02:56;;;;;;;;;22.75;20.25;;;;;;;;5026034;28;45414;-81
2021/09/17 04:05:22;;;;;;;;;28.75;20.75;;;;;;;;5025836;28;45629;-82
2021/09/17 04:07:47;;;;;;;;;28.75;19.50;;;;;;;;5045279;28;45213;-82
2021/09/17 04:10:15;;;;;;;;;21.75;19.75;;;;;;;;5029608;28;45438;-82
2021/09/17 04:12:41;;;;;;;;;21.25;18.50;;;;;;;;5045546;28;45394;-82
2021/09/17 04:15:06;;;;;;;;;21.00;18.00;;;;;;;;5039162;28;44793;-82
2021/09/17 04:17:32;;;;;;;;;22.75;20.50;;;;;;;;5026708;28;45230;-82
2021/09/17 04:19:57;;;;;;;;;24.50;18.50;;;;;;;;5047070;28;45292;-82
2021/09/17 04:22:22;;;;;;;;;24.00;21.00;;;;;;;;5046166;28;45201;-82
2021/09/17 04:24:48;;;;;;;;;23.00;18.75;;;;;;;;5024736;28;45677;-82
2021/09/17 04:27:13;;;;;;;;;22.00;19.75;;;;;;;;5022289;28;46539;-82
2021/09/17 04:29:38;;;;;;;;;21.67;18.67;;;;;;;;5048268;28;44677;-82
2021/09/17 04:32:04;;;;;;;;;21.50;20.75;;;;;;;;5048295;28;45423;-82
2021/09/17 04:34:30;;;;;;;;;20.00;19.25;;;;;;;;5028581;28;45482;-81
2021/09/17 04:36:55;;;;;;;;;24.50;20.25;;;;;;;;5029269;28;47903;-82
2021/09/17 04:39:20;;;;;;;;;19.25;16.50;;;;;;;;5042230;28;45386;-82
2021/09/17 04:41:46;;;;;;;;;23.00;19.50;;;;;;;;5063601;28;45526;-82
2021/09/17 04:44:11;;;;;;;;;19.75;17.00;;;;;;;;5049842;28;45305;-83
2021/09/17 04:46:37;;;;;;;;;21.00;19.25;;;;;;;;5048382;28;47128;-82
2021/09/17 04:49:02;;;;;;;;;20.00;19.25;;;;;;;;5046952;28;45336;-83
2021/09/17 04:51:27;;;;;;;;;21.00;18.50;;;;;;;;5028649;28;45287;-82
2021/09/17 04:53:53;;;;;;;;;24.25;22.25;;;;;;;;5048702;28;45414;-81
2021/09/17 04:56:18;;;;;;;;;20.75;17.00;;;;;;;;5055278;28;45555;-81
2021/09/17 04:58:44;;;;;;;;;23.50;18.75;;;;;;;;5058036;28;44737;-81
2021/09/17 05:01:10;;;;;;;;;19.00;17.25;;;;;;;;5054041;28;44824;-82
2021/09/17 05:03:35;;;;;;;;;19.25;16.75;;;;;;;;5031816;28;45208;-81
2021/09/17 05:06:00;;;;;;;;;22.50;21.00;;;;;;;;5043547;28;45305;-82
2021/09/17 05:08:31;;;;;;;;;19.00;16.00;;;;;;;;5044512;28;45181;-84
2021/09/17 05:10:57;;;;;;;;;20.25;17.00;;;;;;;;5026440;28;45568;-82
2021/09/17 05:13:22;;;;;;;;;19.25;18.50;;;;;;;;5035894;28;45436;-82
2021/09/17 05:15:47;;;;;;;;;19.50;18.00;;;;;;;;5044477;28;46201;-82
2021/09/17 05:18:13;;;;;;;;;21.00;20.75;;;;;;;;5043986;28;45343;-82
2021/09/17 05:20:38;;;;;;;;;25.75;20.00;;;;;;;;5029566;28;45389;-81
2021/09/17 05:23:03;;;;;;;;;20.00;18.00;;;;;;;;5042309;28;45386;-82
2021/09/17 05:25:28;;;;;;;;;22.50;19.25;;;;;;;;5024189;28;48206;-83
2021/09/17 05:27:54;;;;;;;;;20.25;17.50;;;;;;;;5042515;28;45397;-81
2021/09/17 05:30:19;;;;;;;;;23.25;19.25;;;;;;;;5024881;28;45482;-81
2021/09/17 05:32:44;;;;;;;;;25.50;17.50;;;;;;;;5039147;28;45240;-82
2021/09/17 05:35:10;;;;;;;;;22.67;18.00;;;;;;;;5046752;28;47541;-81
2021/09/17 05:37:38;;;;;;;;;19.50;18.00;;;;;;;;5040487;28;45821;-82
2021/09/17 05:40:04;;;;;;;;;25.00;19.50;;;;;;;;5034441;28;45475;-80
2021/09/17 05:42:29;;;;;;;;;21.50;19.25;;;;;;;;5042993;28;45437;-82
2021/09/17 05:44:55;;;;;;;;;20.00;19.00;;;;;;;;5042566;28;45409;-81
2021/09/17 05:47:20;;;;;;;;;21.25;19.50;;;;;;;;5036693;28;45483;-81
2021/09/17 05:49:45;;;;;;;;;22.50;20.75;;;;;;;;5027882;28;45333;-81
2021/09/17 05:52:10;;;;;;;;;22.75;22.75;;;;;;;;5051161;28;45393;-81
2021/09/17 05:54:37;;;;;;;;;18.00;16.00;;;;;;;;5047232;28;45493;-81
2021/09/17 05:57:03;;;;;;;;;22.25;20.50;;;;;;;;5054244;28;45534;-81
2021/09/17 05:59:28;;;;;;;;;21.75;18.50;;;;;;;;5056443;28;45244;-81
2021/09/17 06:01:53;;;;;;;;;23.67;21.00;;;;;;;;5028990;28;45494;-81
2021/09/17 06:04:19;;;;;;;;;21.50;18.75;;;;;;;;5053413;28;45426;-81
2021/09/17 06:06:46;;;;;;;;;21.50;21.00;;;;;;;;5045991;28;45415;-81
2021/09/17 06:09:11;;;;;;;;;23.50;17.75;;;;;;;;5047819;28;46799;-81
2021/09/17 06:11:37;;;;;;;;;24.00;19.75;;;;;;;;5045846;28;45529;-81
2021/09/17 06:14:02;;;;;;;;;22.33;20.00;;;;;;;;5024956;28;47871;-82
2021/09/17 06:16:27;;;;;;;;;21.25;18.50;;;;;;;;5044345;28;45502;-81
2021/09/17 06:19:00;;;;;;;;;24.50;21.25;;;;;;;;5028869;28;45581;-80
2021/09/17 06:21:25;;;;;;;;;22.50;21.25;;;;;;;;5045518;28;45425;-82
2021/09/17 06:23:50;;;;;;;;;31.00;26.33;;;;;;;;5040296;28;46289;-82
2021/09/17 06:26:15;;;;;;;;;26.67;24.00;;;;;;;;5024286;28;45916;-81
2021/09/17 06:28:41;;;;;;;;;28.33;22.33;;;;;;;;5030058;28;45237;-81
2021/09/17 06:31:06;;;;;;;;;26.00;20.00;;;;;;;;5032440;28;45513;-81
2021/09/17 06:33:31;;;;;;;;;21.00;19.75;;;;;;;;5052127;28;46185;-81
2021/09/17 06:35:57;;;;;;;;;26.25;21.25;;;;;;;;5050088;28;45333;-82
2021/09/17 06:38:22;;;;;;;;;21.25;18.75;;;;;;;;5031792;28;45143;-83
2021/09/17 06:41:05;;;;;;;;;23.75;23.00;;;;;;;;5049808;28;45800;-81
2021/09/17 06:43:30;;;;;;;;;24.25;21.75;;;;;;;;5050574;28;46338;-80
2021/09/17 06:45:55;;;;;;;;;25.33;19.33;;;;;;;;5044095;28;46129;-82
2021/09/17 06:48:20;;;;;;;;;19.67;16.00;;;;;;;;5048227;28;45351;-81
2021/09/17 06:50:46;;;;;;;;;23.25;20.25;;;;;;;;5052105;28;45334;-83
2021/09/17 06:53:11;;;;;;;;;23.50;21.50;;;;;;;;5039099;28;47305;-81
2021/09/17 06:55:36;;;;;;;;;20.00;20.00;;;;;;;;5036987;28;45233;-82
2021/09/17 06:58:03;;;;;;;;;29.25;27.00;;;;;;;;5047260;28;45204;-82
2021/09/17 07:00:29;;;;;;;;;24.75;21.25;;;;;;;;5038985;28;45455;-82
2021/09/17 07:02:55;;;;;;;;;23.00;18.00;;;;;;;;5039929;28;45410;-85
2021/09/17 07:05:21;;;;;;;;;24.00;19.50;;;;;;;;5036657;28;45747;-82
2021/09/17 07:07:47;;;;;;;;;21.25;21.25;;;;;;;;5034446;28;45576;-82
2021/09/17 07:10:13;;;;;;;;;21.75;18.00;;;;;;;;5046009;28;45500;-82
2021/09/17 07:12:38;;;;;;;;;22.25;18.75;;;;;;;;5044022;28;46391;-83
2021/09/17 07:15:04;;;;;;;;;19.25;16.25;;;;;;;;5045829;28;45462;-83
2021/09/17 07:17:30;;;;;;;;;20.50;16.00;;;;;;;;5044985;28;45523;-83
2021/09/17 07:19:55;;;;;;;;;29.00;25.75;;;;;;;;5048461;28;45359;-82
2021/09/17 07:22:20;;;;;;;;;21.25;19.75;;;;;;;;5041672;28;45469;-82
2021/09/17 07:24:46;;;;;;;;;24.50;20.25;;;;;;;;5035713;28;45381;-81
2021/09/17 07:27:11;;;;;;;;;28.50;22.00;;;;;;;;5039767;28;45475;-83
2021/09/17 07:29:38;;;;;;;;;23.00;20.75;;;;;;;;5026165;28;45186;-84
2021/09/17 07:32:04;;;;;;;;;26.50;22.50;;;;;;;;5037950;28;46913;-83
2021/09/17 07:34:29;;;;;;;;;20.00;16.50;;;;;;;;5032071;28;45316;-83
2021/09/17 07:36:55;;;;;;;;;26.50;19.25;;;;;;;;5021130;28;45286;-83
2021/09/17 07:39:20;;;;;;;;;19.00;17.75;;;;;;;;5021594;28;45479;-83
2021/09/17 07:41:46;;;;;;;;;19.75;17.75;;;;;;;;5043225;28;45555;-85
2021/09/17 07:44:11;;;;;;;;;21.00;18.00;;;;;;;;5046948;28;45638;-85
2021/09/17 07:46:36;;;;;;;;;21.00;17.00;;;;;;;;5047964;28;45534;-83
2021/09/17 07:49:02;;;;;;;;;19.50;16.75;;;;;;;;5040775;28;45437;-84
2021/09/17 07:51:32;;;;;;;;;17.25;13.75;;;;;;;;5041863;28;46630;-83
2021/09/17 07:53:58;;;;;;;;;19.00;18.00;;;;;;;;5022289;28;45388;-83
2021/09/17 07:56:23;;;;;;;;;19.33;17.33;;;;;;;;5041232;28;45892;-83
2021/09/17 07:58:48;;;;;;;;;17.50;15.00;;;;;;;;5035524;28;45365;-83
2021/09/17 08:01:14;;;;;;;;;18.50;16.25;;;;;;;;5046926;28;45790;-83
2021/09/17 08:03:39;;;;;;;;;20.50;15.00;;;;;;;;5058031;28;45269;-83
2021/09/17 08:06:04;;;;;;;;;19.75;15.50;;;;;;;;5057674;28;45889;-83
2021/09/17 08:08:30;;;;;;;;;15.00;14.50;;;;;;;;5032140;28;45616;-83
2021/09/17 08:10:55;;;;;;;;;19.00;15.75;;;;;;;;5030266;28;47188;-83
2021/09/17 08:13:21;;;;;;;;;15.00;13.75;;;;;;;;5043854;28;45390;-82
2021/09/17 08:15:46;;;;;;;;;12.75;11.25;;;;;;;;5042931;28;45466;-83
2021/09/17 08:18:12;;;;;;;;;14.25;11.00;;;;;;;;5040797;28;45533;-83
2021/09/17 08:20:40;;;;;;;;;11.25;10.00;;;;;;;;5047370;28;45497;-83
2021/09/17 08:23:05;;;;;;;;;15.00;12.25;;;;;;;;5048977;28;45564;-83
2021/09/17 08:25:30;;;;;;;;;10.25;10.25;;;;;;;;5043468;28;45532;-83
2021/09/17 08:27:56;;;;;;;;;11.25;11.00;;;;;;;;5029703;28;45249;-83
2021/09/17 08:30:21;;;;;;;;;13.00;11.00;;;;;;;;5031745;28;45947;-83
2021/09/17 08:32:46;;;;;;;;;14.00;9.50;;;;;;;;5028416;28;45265;-83
2021/09/17 08:35:12;;;;;;;;;9.50;9.00;;;;;;;;5042943;28;45339;-83
2021/09/17 08:37:38;;;;;;;;;8.00;7.75;;;;;;;;5033078;28;45436;-83
2021/09/17 08:40:04;;;;;;;;;14.00;11.25;;;;;;;;5027923;28;47367;-83
2021/09/17 08:42:31;;;;;;;;;10.75;9.75;;;;;;;;5039966;28;45536;-83
2021/09/17 08:44:56;;;;;;;;;12.75;11.50;;;;;;;;5042483;28;45374;-83
2021/09/17 08:47:23;;;;;;;;;12.25;12.25;;;;;;;;5046254;28;45496;-84
2021/09/17 08:49:48;;;;;;;;;7.00;7.00;;;;;;;;5043534;28;45463;-83
2021/09/17 08:52:13;;;;;;;;;7.50;7.00;;;;;;;;5042339;28;45320;-83
2021/09/17 08:54:39;;;;;;;;;10.50;9.75;;;;;;;;5033238;28;45359;-83
2021/09/17 08:57:04;;;;;;;;;8.00;6.00;;;;;;;;5015359;28;45483;-83
2021/09/17 08:59:29;;;;;;;;;8.25;8.25;;;;;;;;5038458;28;46120;-83
2021/09/17 09:01:55;;;;;;;;;7.25;7.00;;;;;;;;5032574;28;45458;-83
2021/09/17 09:04:32;;;;;;;;;6.50;5.50;;;;;;;;5039594;28;45237;-84
2021/09/17 09:07:05;;;;;;;;;12.25;9.50;;;;;;;;5019488;28;45244;-84
2021/09/17 09:09:30;;;;;;;;;10.75;10.25;;;;;;;;5038637;28;45443;-84
2021/09/17 09:11:56;;;;;;;;;9.00;7.25;;;;;;;;5029132;28;45743;-82
2021/09/17 09:14:21;;;;;;;;;7.50;7.50;;;;;;;;5046381;28;45524;-81
2021/09/17 09:16:48;;;;;;;;;9.75;9.75;;;;;;;;5040890;28;45586;-81
2021/09/17 09:19:19;;;;;;;;;8.50;8.50;;;;;;;;5033744;28;47144;-82
2021/09/17 09:21:44;;;;;;;;;7.00;7.00;;;;;;;;5044861;28;45344;-82
2021/09/17 09:24:18;;;;;;;;;8.75;8.25;;;;;;;;5024549;28;45423;-83
2021/09/17 09:26:45;;;;;;;;;8.50;8.25;;;;;;;;5029085;28;45442;-83
2021/09/17 09:29:27;;;;;;;;;12.50;10.50;;;;;;;;5027720;28;48030;-83
2021/09/17 09:31:52;;;;;;;;;9.25;9.25;;;;;;;;5030684;28;45670;-83
2021/09/17 09:34:18;;;;;;;;;9.00;8.25;;;;;;;;5051178;28;45347;-84
2021/09/17 09:36:43;;;;;;;;;13.25;11.00;;;;;;;;5045591;28;44779;-84
2021/09/17 09:39:08;;;;;;;;;9.50;8.00;;;;;;;;5044149;28;45449;-84
2021/09/17 09:41:35;;;;;;;;;9.00;9.00;;;;;;;;5047937;28;44804;-84
2021/09/17 09:44:19;;;;;;;;;7.75;7.75;;;;;;;;5029960;28;45455;-84
2021/09/17 09:46:45;;;;;;;;;11.50;9.75;;;;;;;;5045043;28;45626;-84
2021/09/17 09:49:12;;;;;;;;;10.00;8.25;;;;;;;;5047607;28;46238;-84
2021/09/17 09:51:56;;;;;;;;;10.25;7.50;;;;;;;;5026303;28;45461;-84
2021/09/17 09:54:25;;;;;;;;;8.00;7.75;;;;;;;;5043967;28;45373;-84
2021/09/17 09:56:54;;;;;;;;;8.25;6.50;;;;;;;;5042419;28;45489;-83
2021/09/17 09:59:23;;;;;;;;;9.50;7.00;;;;;;;;5043306;28;46258;-82
2021/09/17 10:01:49;;;;;;;;;11.50;11.00;;;;;;;;5045004;28;45349;-83
2021/09/17 10:04:16;;;;;;;;;9.75;8.75;;;;;;;;5044703;28;45532;-81
2021/09/17 10:06:41;;;;;;;;;7.75;7.25;;;;;;;;5049276;28;45341;-81
2021/09/17 10:09:08;;;;;;;;;7.50;6.50;;;;;;;;5042685;28;46275;-82
2021/09/17 10:11:34;;;;;;;;;9.25;9.25;;;;;;;;5027876;28;45728;-82
2021/09/17 10:14:01;;;;;;;;;8.00;8.00;;;;;;;;5024408;28;45511;-81
2021/09/17 10:16:27;;;;;;;;;7.00;7.00;;;;;;;;5049828;28;45418;-82
2021/09/17 10:18:53;;;;;;;;;9.50;8.00;;;;;;;;5023247;28;47162;-81
2021/09/17 10:21:51;;;;;;;;;9.00;9.00;;;;;;;;5028832;28;45502;-81
2021/09/17 10:24:25;;;;;;;;;9.50;9.25;;;;;;;;5029196;28;45356;-81
2021/09/17 10:27:05;;;;;;;;;7.50;7.25;;;;;;;;5038772;28;45818;-80
2021/09/17 10:29:44;;;;;;;;;8.00;7.75;;;;;;;;5044424;28;45491;-80
2021/09/17 10:32:27;;;;;;;;;10.00;8.25;;;;;;;;5059413;28;44855;-80
2021/09/17 10:35:04;;;;;;;;;7.00;6.50;;;;;;;;5042429;28;45497;-81
2021/09/17 10:37:48;;;;;;;;;7.00;7.00;;;;;;;;5043813;28;45786;-81
2021/09/17 10:40:13;;;;;;;;;5.25;5.00;;;;;;;;5028351;28;47389;-81
2021/09/17 10:42:38;;;;;;;;;7.75;6.00;;;;;;;;5034585;28;45245;-81
2021/09/17 10:45:04;;;;;;;;;5.00;5.00;;;;;;;;5047110;28;46024;-81
2021/09/17 10:47:41;;;;;;;;;6.33;6.33;;;;;;;;5059787;28;45659;-80
2021/09/17 10:50:11;;;;;;;;;6.00;6.00;;;;;;;;5049163;28;46386;-78
2021/09/17 10:52:38;;;;;;;;;5.50;5.00;;;;;;;;5029747;28;45573;-78
2021/09/17 10:55:03;;;;;;;;;4.25;4.25;;;;;;;;5050609;28;45252;-79
2021/09/17 10:57:29;;;;;;;;;5.50;5.50;;;;;;;;5031526;28;45398;-78
2021/09/17 10:59:54;;;;;;;;;5.00;5.00;;;;;;;;5026380;28;46120;-79
2021/09/17 11:02:38;;;;;;;;;6.00;5.00;;;;;;;;5059312;28;45355;-79
2021/09/17 11:05:13;;;;;;;;;7.75;5.00;;;;;;;;5043928;28;45797;-79
2021/09/17 11:07:39;;;;;;;;;7.50;5.00;;;;;;;;5049159;28;45555;-79
2021/09/17 11:10:04;;;;;;;;;6.50;6.00;;;;;;;;5029952;28;45366;-80
2021/09/17 11:12:35;;;;;;;;;7.25;7.25;;;;;;;;5041334;28;45537;-79
2021/09/17 11:15:00;;;;;;;;;12.00;8.00;;;;;;;;5045718;28;45802;-80
2021/09/17 11:17:40;;;;;;;;;7.00;6.67;;;;;;;;5027520;28;45878;-79
2021/09/17 11:20:26;;;;;;;;;5.50;5.50;;;;;;;;5036316;28;46266;-81
2021/09/17 11:23:05;;;;;;;;;2.75;2.75;;;;;;;;5042208;28;45493;-80
2021/09/17 11:25:44;;;;;;;;;5.25;4.25;;;;;;;;5045619;28;45441;-82
2021/09/17 11:28:28;;;;;;;;;6.75;5.25;;;;;;;;5047632;28;45470;-82
2021/09/17 11:30:53;;;;;;;;;7.50;7.00;;;;;;;;5038613;28;47807;-83
2021/09/17 11:33:19;;;;;;;;;7.25;6.00;;;;;;;;5052163;28;45185;-81
2021/09/17 11:35:44;;;;;;;;;8.00;8.00;;;;;;;;5044964;28;45219;-81
2021/09/17 11:38:10;;;;;;;;;4.25;4.25;;;;;;;;5024380;28;46958;-81
2021/09/17 11:40:35;;;;;;;;;5.25;5.25;;;;;;;;5040607;28;45510;-79
2021/09/17 11:43:13;;;;;;;;;6.00;5.50;;;;;;;;5041523;28;45347;-79
2021/09/17 11:45:38;;;;;;;;;7.00;5.50;;;;;;;;5041512;28;45595;-79
2021/09/17 11:48:04;;;;;;;;;9.00;7.00;;;;;;;;5041239;28;45218;-80
2021/09/17 11:50:29;;;;;;;;;5.00;5.00;;;;;;;;5041533;28;45957;-80
2021/09/17 11:52:54;;;;;;;;;5.00;4.25;;;;;;;;5036228;28;46218;-80
2021/09/17 11:55:21;;;;;;;;;5.00;5.00;;;;;;;;5036563;28;45257;-81
2021/09/17 11:57:48;;;;;;;;;4.50;4.50;;;;;;;;5043996;28;45322;-82
2021/09/17 12:00:15;;;;;;;;;7.25;6.00;;;;;;;;5031595;28;45402;-82
2021/09/17 12:02:41;;;;;;;;;11.00;7.00;;;;;;;;5045704;28;46023;-82
2021/09/17 12:05:08;;;;;;;;;7.00;7.00;;;;;;;;5048612;28;45834;-82
2021/09/17 12:07:34;;;;;;;;;7.75;5.25;;;;;;;;5039577;28;45408;-81
2021/09/17 12:10:06;;;;;;;;;7.75;6.00;;;;;;;;5040418;28;46023;-81
2021/09/17 12:12:32;;;;;;;;;5.25;5.25;;;;;;;;5039839;28;45691;-82
2021/09/17 12:14:58;;;;;;;;;6.75;6.75;;;;;;;;5024251;28;45560;-81
2021/09/17 12:17:23;;;;;;;;;5.00;5.00;;;;;;;;5036761;28;45400;-79
2021/09/17 12:19:56;;;;;;;;;5.00;5.00;;;;;;;;5022790;28;47410;-77
2021/09/17 12:22:29;;;;;;;;;7.50;6.75;;;;;;;;5038627;28;45525;-78
2021/09/17 12:25:23;;;;;;;;;8.75;8.75;;;;;;;;5038343;28;45483;-77
2021/09/17 12:27:55;;;;;;;;;10.25;9.00;;;;;;;;5004695;28;45572;-77
2021/09/17 12:30:20;;;;;;;;;6.50;6.50;;;;;;;;5037865;28;46526;-78
2021/09/17 12:33:03;;;;;;;;;6.50;5.75;;;;;;;;5037874;28;45430;-77
2021/09/17 12:35:29;;;;;;;;;7.75;7.75;;;;;;;;5019326;28;45536;-77
2021/09/17 12:37:55;;;;;;;;;8.00;5.25;;;;;;;;5022718;28;45562;-78
2021/09/17 12:40:21;;;;;;;;;6.75;6.25;;;;;;;;5038184;28;45982;-78
2021/09/17 12:43:07;;;;;;;;;6.25;5.75;;;;;;;;5021557;28;45525;-78
2021/09/17 12:45:34;;;;;;;;;7.75;6.50;;;;;;;;5020543;28;46368;-78
2021/09/17 12:48:00;;;;;;;;;7.00;4.00;;;;;;;;5038618;28;45754;-78
2021/09/17 12:50:30;;;;;;;;;7.00;6.50;;;;;;;;5040047;28;46712;-77
2021/09/17 12:52:55;;;;;;;;;6.00;6.00;;;;;;;;5037966;28;45627;-77
2021/09/17 12:55:21;;;;;;;;;7.75;6.00;;;;;;;;5035059;28;45655;-77
2021/09/17 12:58:13;;;;;;;;;8.50;6.50;;;;;;;;5030058;28;45601;-78
2021/09/17 13:00:41;;;;;;;;;8.25;6.75;;;;;;;;5039718;28;45525;-78
2021/09/17 13:03:07;;;;;;;;;7.25;5.00;;;;;;;;5028430;28;46919;-78
2021/09/17 13:05:33;;;;;;;;;6.50;5.75;;;;;;;;5039478;28;45218;-78
2021/09/17 13:07:59;;;;;;;;;6.75;4.75;;;;;;;;5040204;28;45348;-77
2021/09/17 13:10:25;;;;;;;;;6.75;5.75;;;;;;;;5041387;28;45422;-77
2021/09/17 13:12:50;;;;;;;;;8.50;7.25;;;;;;;;5042547;28;45569;-78
2021/09/17 13:15:15;;;;;;;;;6.00;5.50;;;;;;;;5042354;28;45446;-80
2021/09/17 13:17:40;;;;;;;;;6.50;6.50;;;;;;;;5042666;28;45438;-80
2021/09/17 13:20:07;;;;;;;;;10.75;9.25;;;;;;;;5037947;28;45422;-80
2021/09/17 13:22:32;;;;;;;;;7.00;6.50;;;;;;;;5042491;28;45327;-80
2021/09/17 13:24:59;;;;;;;;;8.00;7.25;;;;;;;;5039935;28;45435;-80
2021/09/17 13:27:24;;;;;;;;;6.25;6.25;;;;;;;;5040934;28;45311;-80
2021/09/17 13:29:49;;;;;;;;;6.00;6.00;;;;;;;;5041544;28;46464;-79
2021/09/17 13:32:15;;;;;;;;;5.75;5.00;;;;;;;;5041699;28;45299;-79
2021/09/17 13:34:40;;;;;;;;;7.00;7.00;;;;;;;;5020466;28;45258;-79
2021/09/17 13:37:05;;;;;;;;;5.67;5.67;;;;;;;;5031808;28;45244;-80
2021/09/17 13:39:30;;;;;;;;;7.25;4.50;;;;;;;;5040487;28;45445;-79
2021/09/17 13:41:56;;;;;;;;;10.50;9.50;;;;;;;;5040530;28;44769;-79
2021/09/17 13:44:21;;;;;;;;;7.33;7.00;;;;;;;;5041703;28;45137;-82
2021/09/17 13:46:46;;;;;;;;;9.67;7.33;;;;;;;;5042845;28;45526;-83
2021/09/17 13:49:11;;;;;;;;;9.50;8.00;;;;;;;;5040912;28;47075;-83
2021/09/17 13:51:36;;;;;;;;;6.33;6.33;;;;;;;;5042051;28;45378;-81
2021/09/17 13:54:02;;;;;;;;;10.00;9.00;;;;;;;;5042823;28;45246;-82
2021/09/17 13:56:27;;;;;;;;;7.00;6.50;;;;;;;;5049597;28;45145;-84
2021/09/17 13:58:52;;;;;;;;;7.00;7.00;;;;;;;;5038808;28;46448;-82
2021/09/17 14:01:18;;;;;;;;;5.00;5.00;;;;;;;;5048318;28;45233;-83
2021/09/17 14:03:43;;;;;;;;;6.25;6.00;;;;;;;;5044989;28;45641;-83
2021/09/17 14:06:08;;;;;;;;;7.33;7.33;;;;;;;;5042374;28;45303;-83
2021/09/17 14:08:33;;;;;;;;;6.00;6.00;;;;;;;;5023187;28;46128;-83
2021/09/17 14:10:59;;;;;;;;;6.00;6.00;;;;;;;;5042909;28;45284;-83
2021/09/17 14:13:24;;;;;;;;;6.33;6.00;;;;;;;;5033207;28;45261;-83
2021/09/17 14:15:49;;;;;;;;;8.75;6.00;;;;;;;;5027223;28;45302;-83
2021/09/17 14:18:14;;;;;;;;;9.00;6.00;;;;;;;;5044113;28;46361;-83
2021/09/17 14:20:39;;;;;;;;;8.25;7.00;;;;;;;;5034189;28;45752;-83
2021/09/17 14:23:05;;;;;;;;;9.67;6.67;;;;;;;;5044497;28;45423;-83